Time;durP1;ratioP1;P1;durP2;ratioP2;P2;SDS_P1;SDS_P2;PMS_P1;PMS_P2;Temp;Humidity;BMP_temperature;BMP_pressure;BME280_temperature;BME280_humidity;BME280_pressure;Samples;Min_cycle;Max_cycle;Signal;HPM_P1;HPM_P2
2021/07/25 00:01:35;;;;;;;20.60;10.65;;;;;;;15.11;100.00;100859.50;5194488;28;20112;-85
2021/07/25 00:04:05;;;;;;;23.88;11.38;;;;;;;15.07;100.00;100861.78;5220134;28;20025;-85
2021/07/25 00:06:36;;;;;;;28.98;11.65;;;;;;;15.05;100.00;100863.81;5185530;28;20369;-85
2021/07/25 00:09:06;;;;;;;21.42;11.38;;;;;;;15.03;100.00;100865.91;5197184;28;20045;-85
2021/07/25 00:11:37;;;;;;;25.45;12.35;;;;;;;15.07;100.00;100858.25;5197869;28;20025;-84
2021/07/25 00:14:07;;;;;;;29.80;14.40;;;;;;;15.09;100.00;100853.47;5192328;28;20108;-84
2021/07/25 00:16:37;;;;;;;22.38;12.52;;;;;;;15.10;100.00;100852.44;5210137;28;20067;-84
2021/07/25 00:19:12;;;;;;;29.50;14.50;;;;;;;15.08;100.00;100858.03;5196626;28;20510;-84
2021/07/25 00:21:42;;;;;;;33.58;14.05;;;;;;;15.10;100.00;100845.16;5215677;28;20020;-85
2021/07/25 00:24:13;;;;;;;22.40;12.60;;;;;;;15.10;100.00;100838.91;5194584;28;20032;-84
2021/07/25 00:26:48;;;;;;;27.05;13.52;;;;;;;15.12;100.00;100839.56;5209849;28;20020;-84
2021/07/25 00:29:18;;;;;;;27.77;12.40;;;;;;;15.19;100.00;100835.88;5192918;28;20033;-84
2021/07/25 00:31:49;;;;;;;20.17;11.93;;;;;;;15.20;100.00;100837.53;5198146;28;20032;-85
2021/07/25 00:34:19;;;;;;;27.35;11.70;;;;;;;15.18;100.00;100841.50;5214828;28;20104;-85
2021/07/25 00:36:49;;;;;;;25.35;11.82;;;;;;;15.19;100.00;100838.56;5192595;28;20028;-85
2021/07/25 00:39:20;;;;;;;30.73;12.95;;;;;;;15.19;100.00;100833.19;5190791;28;20026;-85
2021/07/25 00:41:51;;;;;;;24.83;11.52;;;;;;;15.18;100.00;100833.38;5214921;28;20112;-84
2021/07/25 00:44:21;;;;;;;27.20;11.98;;;;;;;15.16;100.00;100830.88;5204425;28;20112;-85
2021/07/25 00:46:57;;;;;;;25.92;12.75;;;;;;;15.15;100.00;100826.50;5196011;28;20104;-85
2021/07/25 00:49:28;;;;;;;33.08;13.60;;;;;;;15.21;100.00;100830.25;5214693;28;20563;-85
2021/07/25 00:51:59;;;;;;;28.60;13.23;;;;;;;15.19;100.00;100838.56;5185078;28;20027;-85
2021/07/25 00:54:30;;;;;;;30.55;14.10;;;;;;;15.19;100.00;100833.19;5197743;28;20029;-85
2021/07/25 00:57:00;;;;;;;34.10;14.07;;;;;;;15.20;100.00;100834.00;5206231;28;20034;-85
2021/07/25 00:59:30;;;;;;;29.55;13.80;;;;;;;15.20;100.00;100832.13;5196282;28;20021;-84
2021/07/25 01:02:01;;;;;;;31.30;14.07;;;;;;;15.20;100.00;100837.53;5215125;28;20035;-85
2021/07/25 01:04:44;;;;;;;32.42;15.18;;;;;;;15.19;100.00;100827.78;5230928;23;20105;-66
2021/07/25 01:07:32;;;;;;;33.55;14.98;;;;;;;15.16;100.00;100838.13;5208311;28;20123;-66
2021/07/25 01:10:10;;;;;;;32.40;15.10;;;;;;;15.14;100.00;100830.22;5221188;28;20032;-66
2021/07/25 01:12:44;;;;;;;29.65;15.05;;;;;;;15.12;100.00;100824.19;5222188;28;20029;-66
2021/07/25 01:15:19;;;;;;;38.45;14.75;;;;;;;15.09;100.00;100821.88;5205643;28;20033;-66
2021/07/25 01:17:54;;;;;;;36.03;14.73;;;;;;;15.10;100.00;100834.34;5201688;28;20030;-66
2021/07/25 01:20:25;;;;;;;32.88;15.73;;;;;;;15.09;100.00;100838.09;5200244;28;20410;-66
2021/07/25 01:22:58;;;;;;;32.53;15.80;;;;;;;15.08;100.00;100831.03;5205685;28;20112;-67
2021/07/25 01:25:29;;;;;;;31.02;15.02;;;;;;;15.10;100.00;100823.53;5205521;28;20033;-66
2021/07/25 01:28:07;;;;;;;35.50;15.98;;;;;;;15.11;100.00;100827.06;5205516;28;20028;-66
2021/07/25 01:30:40;;;;;;;25.65;12.32;;;;;;;15.15;100.00;100815.69;5204097;28;20105;-66
2021/07/25 01:33:14;;;;;;;33.90;15.60;;;;;;;15.16;100.00;100816.50;5205393;28;20025;-66
2021/07/25 01:35:46;;;;;;;34.20;14.63;;;;;;;15.15;100.00;100814.84;5205370;28;20026;-66
2021/07/25 01:38:17;;;;;;;31.52;14.70;;;;;;;15.15;100.00;100814.84;5205412;28;20489;-66
2021/07/25 01:41:05;;;;;;;29.90;13.32;;;;;;;15.14;100.00;100807.78;5204662;28;20018;-66
2021/07/25 01:43:39;;;;;;;34.25;14.77;;;;;;;15.11;100.00;100803.63;5205204;28;20060;-66
2021/07/25 01:46:11;;;;;;;28.50;14.18;;;;;;;15.10;100.00;100803.78;5222574;28;20113;-66
2021/07/25 01:48:42;;;;;;;31.95;14.82;;;;;;;15.07;100.00;100799.63;5225583;28;20082;-66
2021/07/25 01:51:14;;;;;;;30.70;15.07;;;;;;;15.08;100.00;100800.47;5211574;28;20060;-66
2021/07/25 01:53:45;;;;;;;32.85;14.25;;;;;;;15.05;100.00;100798.97;5213722;28;20029;-66
2021/07/25 01:56:15;;;;;;;32.38;15.30;;;;;;;15.04;100.00;100805.41;5218159;28;20476;-66
2021/07/25 01:58:46;;;;;;;33.97;15.50;;;;;;;14.99;100.00;100800.59;5217941;28;20047;-66
2021/07/25 02:01:16;;;;;;;33.83;14.32;;;;;;;14.96;100.00;100806.41;5211432;28;20131;-66
2021/07/25 02:03:47;;;;;;;35.80;15.35;;;;;;;14.96;100.00;100806.41;5224528;28;20045;-66
2021/07/25 02:06:18;;;;;;;40.22;16.00;;;;;;;14.95;100.00;100804.72;5213351;28;20029;-66
2021/07/25 02:08:51;;;;;;;38.42;15.68;;;;;;;14.93;100.00;100797.88;5218335;28;20029;-66
2021/07/25 02:11:28;;;;;;;40.65;14.93;;;;;;;14.93;100.00;100789.75;5216198;28;20041;-66
2021/07/25 02:13:59;;;;;;;34.08;15.20;;;;;;;14.94;100.00;100797.66;5211488;28;20035;-66
2021/07/25 02:16:29;;;;;;;37.25;14.95;;;;;;;14.99;100.00;100797.91;5212513;28;20479;-65
2021/07/25 02:19:00;;;;;;;33.17;14.57;;;;;;;14.99;100.00;100797.06;5217490;28;20032;-66
2021/07/25 02:21:30;;;;;;;37.75;15.20;;;;;;;14.98;100.00;100798.09;5217426;28;20040;-65
2021/07/25 02:24:01;;;;;;;30.98;13.18;;;;;;;14.97;100.00;100793.75;5212890;28;20433;-66
2021/07/25 02:26:31;;;;;;;35.13;15.52;;;;;;;15.05;100.00;100785.47;5211457;28;20026;-65
2021/07/25 02:29:02;;;;;;;37.60;14.75;;;;;;;15.08;100.00;100781.56;5214230;28;20030;-66
2021/07/25 02:31:33;;;;;;;32.35;13.82;;;;;;;15.11;100.00;100773.91;5217244;28;20036;-66
2021/07/25 02:34:04;;;;;;;39.10;15.13;;;;;;;15.12;100.00;100772.03;5213944;28;20406;-66
2021/07/25 02:36:34;;;;;;;33.75;14.27;;;;;;;15.10;100.00;100783.00;5211186;28;20075;-65
2021/07/25 02:39:05;;;;;;;41.72;15.35;;;;;;;15.08;100.00;100776.97;5212181;28;20061;-66
2021/07/25 02:41:38;;;;;;;39.33;16.35;;;;;;;15.07;100.00;100788.00;5217407;28;20743;-66
2021/07/25 02:44:08;;;;;;;40.35;15.82;;;;;;;15.05;100.00;100788.16;5217443;28;20415;-66
2021/07/25 02:46:39;;;;;;;46.83;15.38;;;;;;;15.06;100.00;100795.28;5204049;28;20056;-66
2021/07/25 02:49:09;;;;;;;41.80;17.30;;;;;;;15.07;100.00;100782.59;5216807;28;20106;-66
2021/07/25 02:51:40;;;;;;;42.67;17.25;;;;;;;15.07;100.00;100783.44;5212474;28;20040;-67
2021/07/25 02:54:11;;;;;;;46.58;16.95;;;;;;;15.08;100.00;100785.09;5210669;28;20033;-66
2021/07/25 02:56:41;;;;;;;44.03;17.27;;;;;;;15.07;100.00;100778.03;5212437;28;20029;-66
2021/07/25 02:59:12;;;;;;;43.45;16.77;;;;;;;15.07;100.00;100775.31;5213599;28;20025;-66
2021/07/25 03:01:43;;;;;;;42.00;18.40;;;;;;;15.07;100.00;100769.91;5214395;28;20123;-66
2021/07/25 03:04:14;;;;;;;44.00;17.42;;;;;;;15.08;100.00;100765.34;5222958;28;20032;-65
2021/07/25 03:06:44;;;;;;;45.22;17.90;;;;;;;15.09;100.00;100769.72;5208736;28;20394;-65
2021/07/25 03:09:15;;;;;;;45.58;17.75;;;;;;;15.08;100.00;100763.47;5216126;28;20453;-65
2021/07/25 03:11:46;;;;;;;43.70;17.75;;;;;;;15.10;100.00;100758.69;5217018;28;20051;-66
2021/07/25 03:14:17;;;;;;;50.95;19.45;;;;;;;15.11;100.00;100760.38;5212060;28;20130;-65
2021/07/25 03:16:48;;;;;;;40.88;17.50;;;;;;;15.13;100.00;100758.31;5210515;28;20061;-65
2021/07/25 03:19:18;;;;;;;48.58;18.70;;;;;;;15.13;100.00;100761.00;5213562;28;20021;-65
2021/07/25 03:21:49;;;;;;;40.47;17.77;;;;;;;15.16;100.00;100774.13;5216504;28;20491;-66
2021/07/25 03:24:19;;;;;;;50.65;18.15;;;;;;;15.18;100.00;100763.97;5214593;28;20025;-65
2021/07/25 03:26:50;;;;;;;46.08;18.52;;;;;;;15.20;100.00;100761.03;5210435;28;20114;-66
2021/07/25 03:29:21;;;;;;;43.75;16.75;;;;;;;15.20;100.00;100759.19;5210484;28;20032;-66
2021/07/25 03:31:52;;;;;;;41.08;16.25;;;;;;;15.22;100.00;100761.69;5216419;28;20029;-66
2021/07/25 03:34:22;;;;;;;47.83;17.35;;;;;;;15.19;100.00;100760.22;5216066;28;20410;-66
2021/07/25 03:36:53;;;;;;;39.83;16.98;;;;;;;15.17;100.00;100761.47;5211330;28;20036;-66
2021/07/25 03:39:25;;;;;;;49.85;17.27;;;;;;;15.14;100.00;100759.16;5209761;28;20159;-66
2021/07/25 03:41:55;;;;;;;39.90;16.63;;;;;;;15.12;100.00;100758.53;5213753;28;20110;-66
2021/07/25 03:44:26;;;;;;;33.70;15.32;;;;;;;15.08;100.00;100762.66;5215796;28;20491;-66
2021/07/25 03:46:57;;;;;;;40.05;17.25;;;;;;;15.03;100.00;100753.25;5213783;28;20151;-66
2021/07/25 03:50:01;;;;;;;33.40;15.57;;;;;;;14.99;100.00;100754.69;5209766;28;20024;-66
2021/07/25 03:52:34;;;;;;;32.58;14.00;;;;;;;14.94;100.00;100738.22;5209485;28;20921;-66
2021/07/25 03:55:06;;;;;;;41.47;15.88;;;;;;;14.92;100.00;100744.88;5212794;28;20052;-66
2021/07/25 03:57:37;;;;;;;37.10;15.43;;;;;;;14.84;100.00;100751.25;5210700;28;20025;-66
2021/07/25 04:00:08;;;;;;;41.55;15.43;;;;;;;14.77;100.00;100744.97;5210709;28;20506;-66
2021/07/25 04:02:39;;;;;;;46.90;16.23;;;;;;;14.74;100.00;100743.50;5220161;28;20025;-66
2021/07/25 04:05:09;;;;;;;30.15;14.02;;;;;;;14.80;100.00;100746.44;5220712;28;20398;-66
2021/07/25 04:07:40;;;;;;;34.35;14.10;;;;;;;14.82;100.00;100745.22;5209743;28;20391;-66
2021/07/25 04:10:11;;;;;;;38.40;15.98;;;;;;;14.81;100.00;100745.41;5208414;28;20036;-66
2021/07/25 04:12:42;;;;;;;35.83;14.70;;;;;;;14.77;100.00;100745.81;5214535;28;20025;-65
2021/07/25 04:15:12;;;;;;;32.83;14.85;;;;;;;14.69;100.00;100748.63;5215061;28;20297;-66
2021/07/25 04:17:43;;;;;;;75.75;16.30;;;;;;;14.64;100.00;100747.56;5211797;28;20024;-66
2021/07/25 04:20:14;;;;;;;49.22;15.15;;;;;;;14.62;100.00;100750.47;5208517;28;20025;-66
2021/07/25 04:22:44;;;;;;;41.38;14.68;;;;;;;14.63;100.00;100751.28;5212050;28;20030;-66
2021/07/25 04:25:14;;;;;;;38.40;15.75;;;;;;;14.62;100.00;100755.88;5206596;28;20036;-66
2021/07/25 04:27:45;;;;;;;37.75;15.48;;;;;;;14.67;100.00;100753.41;5210822;28;20459;-65
2021/07/25 04:30:17;;;;;;;44.92;16.23;;;;;;;14.74;100.00;100756.16;5214876;28;20026;-66
2021/07/25 04:32:48;;;;;;;41.17;17.08;;;;;;;14.77;100.00;100759.31;5214858;28;20033;-66
2021/07/25 04:35:20;;;;;;;39.63;15.45;;;;;;;14.82;100.00;100756.03;5191844;28;20029;-66
2021/07/25 04:37:54;;;;;;;41.45;17.02;;;;;;;14.86;100.00;100759.16;5209198;28;20037;-66
2021/07/25 04:40:25;;;;;;;39.78;14.65;;;;;;;14.89;100.00;100756.06;5211773;28;20030;-66
2021/07/25 04:42:57;;;;;;;37.10;15.45;;;;;;;14.91;100.00;100764.78;5215020;28;20029;-66
2021/07/25 04:45:46;;;;;;;38.10;16.33;;;;;;;14.93;100.00;100768.97;5213102;28;20094;-65
2021/07/25 04:48:23;;;;;;;33.60;14.45;;;;;;;14.99;100.00;100764.66;5215048;28;20126;-66
2021/07/25 04:51:03;;;;;;;40.13;14.77;;;;;;;15.03;100.00;100761.38;5214530;28;20036;-65
2021/07/25 04:53:39;;;;;;;33.83;14.90;;;;;;;15.07;100.00;100763.69;5212705;28;20387;-66
2021/07/25 04:56:12;;;;;;;30.10;14.30;;;;;;;15.08;100.00;100768.03;5205182;28;20079;-66
2021/07/25 04:58:58;;;;;;;60.42;12.05;;;;;;;15.02;100.00;100766.97;5214739;28;20024;-66
2021/07/25 05:01:32;;;;;;;23.73;11.60;;;;;;;15.00;100.00;100767.16;5210748;28;20388;-66
2021/07/25 05:04:05;;;;;;;26.23;11.52;;;;;;;14.98;100.00;100771.94;5220942;28;20035;-65
2021/07/25 05:06:37;;;;;;;25.30;11.10;;;;;;;15.02;100.00;100766.97;5208181;28;20048;-66
2021/07/25 05:09:09;;;;;;;38.67;13.15;;;;;;;15.05;100.00;100771.13;5213997;28;20032;-66
2021/07/25 05:11:45;;;;;;;38.15;15.13;;;;;;;15.08;100.00;100774.28;5214599;28;20025;-66
2021/07/25 05:14:21;;;;;;;42.03;16.98;;;;;;;15.25;100.00;100767.53;5209514;28;20030;-65
2021/07/25 05:17:02;;;;;;;35.50;16.55;;;;;;;15.51;100.00;100776.81;5208772;28;20369;-66
2021/07/25 05:19:38;;;;;;;37.92;16.80;;;;;;;15.71;100.00;100769.69;5210149;28;20061;-66
2021/07/25 05:22:16;;;;;;;38.22;15.77;;;;;;;15.88;100.00;100772.03;5214402;28;20060;-65
2021/07/25 05:24:47;;;;;;;40.17;16.38;;;;;;;16.06;100.00;100780.41;5214493;28;20414;-66
2021/07/25 05:27:21;;;;;;;32.05;14.30;;;;;;;16.06;100.00;100777.69;5209468;28;20025;-65
2021/07/25 05:29:52;;;;;;;32.58;14.07;;;;;;;16.18;100.00;100776.06;5207783;28;20059;-65
2021/07/25 05:32:23;;;;;;;26.70;13.90;;;;;;;16.29;100.00;100785.47;5211554;28;20025;-65
2021/07/25 05:34:53;;;;;;;32.05;12.98;;;;;;;16.37;100.00;100777.16;5214561;28;20030;-66
2021/07/25 05:37:23;;;;;;;30.83;13.45;;;;;;;16.38;100.00;100772.56;5212466;28;20029;-66
2021/07/25 05:39:54;;;;;;;23.00;12.13;;;;;;;16.60;100.00;100781.34;5207531;28;20376;-65
2021/07/25 05:42:25;;;;;;;28.98;11.40;;;;;;;16.70;100.00;100776.34;5209772;28;20825;-66
2021/07/25 05:44:55;;;;;;;31.50;12.32;;;;;;;16.89;100.00;100778.25;5213983;28;20112;-66
2021/07/25 05:47:26;;;;;;;22.45;11.52;;;;;;;17.04;100.00;100776.16;5214702;28;20117;-65
2021/07/25 05:49:56;;;;;;;26.48;11.68;;;;;;;17.14;100.00;100773.00;5214073;28;20052;-65
2021/07/25 05:52:27;;;;;;;22.60;11.07;;;;;;;17.26;100.00;100775.91;5214455;28;20055;-66
2021/07/25 05:54:57;;;;;;;20.48;10.80;;;;;;;18.11;100.00;100769.31;5201137;28;20060;-65
2021/07/25 05:57:28;;;;;;;18.58;9.30;;;;;;;19.36;100.00;100765.81;5204756;28;20774;-66
2021/07/25 05:59:59;;;;;;;17.27;8.40;;;;;;;20.27;100.00;100758.59;5211284;28;20391;-66
2021/07/25 06:02:30;;;;;;;19.77;7.50;;;;;;;21.02;100.00;100753.41;5217504;28;20032;-66
2021/07/25 06:05:00;;;;;;;11.05;6.55;;;;;;;21.24;100.00;100753.66;5220107;28;20037;-66
2021/07/25 06:07:31;;;;;;;17.40;7.82;;;;;;;21.14;100.00;100748.81;5202218;28;20057;-66
2021/07/25 06:10:01;;;;;;;9.73;6.32;;;;;;;21.29;100.00;100748.31;5216897;28;20013;-67
2021/07/25 06:12:32;;;;;;;14.32;6.80;;;;;;;22.07;100.00;100749.63;5211758;28;20025;-66
2021/07/25 06:15:03;;;;;;;17.52;6.35;;;;;;;22.49;100.00;100752.03;5211817;28;20028;-66
2021/07/25 06:17:34;;;;;;;9.98;5.78;;;;;;;23.25;100.00;100750.56;5217128;28;20045;-66
2021/07/25 06:20:05;;;;;;;12.98;6.10;;;;;;;23.74;100.00;100753.38;5216465;28;20025;-66
2021/07/25 06:22:38;;;;;;;12.52;6.07;;;;;;;23.96;100.00;100738.84;5214121;28;20108;-67
2021/07/25 06:25:11;;;;;;;13.27;6.47;;;;;;;23.85;100.00;100739.84;5211889;28;20025;-67
2021/07/25 06:27:41;;;;;;;12.20;5.82;;;;;;;24.22;100.00;100739.94;5214059;28;20088;-67
2021/07/25 06:30:12;;;;;;;17.02;5.60;;;;;;;24.32;100.00;100747.44;5216925;28;20018;-66
2021/07/25 06:33:00;;;;;;;18.38;5.90;;;;;;;24.11;100.00;100747.22;5203917;28;20033;-66
2021/07/25 06:35:37;;;;;;;16.48;6.40;;;;;;;24.06;100.00;100746.34;5204418;28;20545;-66
2021/07/25 06:38:10;;;;;;;14.57;5.30;;;;;;;24.00;100.00;100743.56;5217506;28;20040;-66
2021/07/25 06:40:43;;;;;;;13.02;5.60;;;;;;;23.74;100.00;100747.06;5215391;28;20391;-66
2021/07/25 06:43:16;;;;;;;15.15;6.18;;;;;;;23.09;100.00;100756.03;5210844;28;20048;-66
2021/07/25 06:45:47;;;;;;;12.38;5.30;;;;;;;22.93;100.00;100747.59;5211378;28;20378;-66
2021/07/25 06:48:20;;;;;;;12.65;5.65;;;;;;;22.66;100.00;100761.09;5216751;28;20041;-66
2021/07/25 06:50:53;;;;;;;17.27;5.53;;;;;;;22.35;100.00;100757.03;5216580;28;20071;-66
2021/07/25 06:53:25;;;;;;;15.52;5.45;;;;;;;22.15;100.00;100759.41;5213614;28;20648;-66
2021/07/25 06:55:59;;;;;;;17.77;5.97;;;;;;;21.90;100.00;100759.69;5193033;28;20391;-66
2021/07/25 06:58:30;;;;;;;14.73;5.85;;;;;;;21.76;100.00;100761.88;5216040;28;20025;-65
2021/07/25 07:01:01;;;;;;;14.82;5.90;;;;;;;21.54;100.00;100760.88;5210195;28;20033;-66
2021/07/25 07:03:31;;;;;;;14.43;6.30;;;;;;;21.37;100.00;100758.88;5222273;28;20031;-66
2021/07/25 07:06:08;;;;;;;15.45;6.10;;;;;;;21.11;100.00;100762.06;5213966;28;20033;-66
2021/07/25 07:08:39;;;;;;;18.23;6.22;;;;;;;21.31;100.00;100757.09;5216855;28;20025;-66
2021/07/25 07:11:09;;;;;;;11.25;4.95;;;;;;;21.09;100.00;100754.16;5212032;28;20054;-66
2021/07/25 07:13:40;;;;;;;12.40;5.32;;;;;;;21.07;100.00;100761.72;5210548;28;20049;-66
2021/07/25 07:16:10;;;;;;;13.60;5.20;;;;;;;21.05;100.00;100761.13;5214789;28;20159;-65
2021/07/25 07:18:41;;;;;;;13.93;5.60;;;;;;;21.16;100.00;100754.00;5215416;28;20420;-66
2021/07/25 07:21:12;;;;;;;10.27;4.85;;;;;;;21.04;100.00;100755.94;5213609;28;20025;-66
2021/07/25 07:23:42;;;;;;;6.47;4.30;;;;;;;21.40;100.00;100757.56;5210523;28;20426;-66
2021/07/25 07:26:13;;;;;;;7.75;3.95;;;;;;;21.43;100.00;100755.19;5211775;28;20623;-65
2021/07/25 07:28:43;;;;;;;12.90;4.63;;;;;;;21.58;100.00;100762.84;5216662;28;20527;-66
2021/07/25 07:31:14;;;;;;;10.68;4.57;;;;;;;21.80;100.00;100764.97;5215472;28;20418;-66
2021/07/25 07:33:44;;;;;;;9.07;4.90;;;;;;;21.87;100.00;100763.72;5216247;28;20029;-66
2021/07/25 07:36:15;;;;;;;17.27;5.30;;;;;;;21.64;100.00;100767.38;5216189;28;20087;-66
2021/07/25 07:38:45;;;;;;;10.15;4.35;;;;;;;21.89;100.00;100771.69;5211896;28;20056;-66
2021/07/25 07:41:17;;;;;;;11.13;4.53;;;;;;;22.22;100.00;100773.72;5209289;28;20044;-66
2021/07/25 07:43:47;;;;;;;9.07;4.43;;;;;;;22.40;100.00;100776.25;5212820;28;20029;-66
2021/07/25 07:46:18;;;;;;;8.98;4.07;;;;;;;22.44;100.00;100779.28;5216539;28;20026;-66
2021/07/25 07:48:48;;;;;;;10.27;4.03;;;;;;;22.38;100.00;100772.09;5214567;28;20447;-65
2021/07/25 07:51:19;;;;;;;16.23;4.80;;;;;;;22.55;100.00;100777.59;5209630;28;20068;-65
2021/07/25 07:53:49;;;;;;;11.65;4.32;;;;;;;22.43;100.00;100773.00;5210144;28;20392;-65
2021/07/25 07:56:21;;;;;;;10.68;4.18;;;;;;;22.75;100.00;100780.66;5216180;28;20067;-66
2021/07/25 07:58:51;;;;;;;9.32;4.25;;;;;;;22.97;100.00;100780.75;5215848;28;20021;-66
2021/07/25 08:01:22;;;;;;;9.50;3.33;;;;;;;23.17;100.00;100783.81;5209700;28;20505;-66
2021/07/25 08:03:52;;;;;;;15.38;4.03;;;;;;;23.21;100.00;100782.22;5222609;28;20025;-66
2021/07/25 08:06:23;;;;;;;7.93;3.42;;;;;;;23.24;100.00;100786.34;5210407;28;20730;-66
2021/07/25 08:08:53;;;;;;;7.43;3.20;;;;;;;23.36;100.00;100784.34;5215764;28;20237;-66
2021/07/25 08:11:24;;;;;;;8.93;3.72;;;;;;;23.59;100.00;100782.47;5212960;28;20566;-66
2021/07/25 08:13:54;;;;;;;8.95;3.65;;;;;;;23.61;100.00;100777.56;5209375;28;20021;-66
2021/07/25 08:16:25;;;;;;;7.07;3.05;;;;;;;23.64;100.00;100775.16;5210607;28;20029;-66
2021/07/25 08:18:55;;;;;;;8.70;3.50;;;;;;;23.58;100.00;100780.81;5214853;28;20136;-65
2021/07/25 08:21:26;;;;;;;7.72;3.33;;;;;;;23.71;100.00;100778.56;5214556;28;20163;-66
2021/07/25 08:23:56;;;;;;;10.88;3.22;;;;;;;23.97;100.00;100782.41;5209699;28;20143;-65
2021/07/25 08:26:27;;;;;;;13.73;4.55;;;;;;;24.06;100.00;100784.72;5209493;28;20036;-66
2021/07/25 08:28:58;;;;;;;8.18;3.72;;;;;;;24.04;100.00;100777.56;5213831;28;20033;-66
2021/07/25 08:31:28;;;;;;;9.75;3.20;;;;;;;24.36;100.00;100782.31;5214427;28;20033;-66
2021/07/25 08:33:59;;;;;;;10.60;3.63;;;;;;;24.45;100.00;100775.28;5212094;28;20039;-66
2021/07/25 08:36:29;;;;;;;6.55;3.42;;;;;;;24.57;100.00;100777.03;5191388;28;20483;-66
2021/07/25 08:39:00;;;;;;;9.20;3.35;;;;;;;24.03;100.00;100780.56;5210595;28;20040;-65
2021/07/25 08:41:39;;;;;;;7.13;3.88;;;;;;;24.25;100.00;100773.13;5197157;28;20041;-66
2021/07/25 08:44:23;;;;;;;6.90;2.83;;;;;;;24.03;100.00;100781.38;5214780;28;20430;-65
2021/07/25 08:46:55;;;;;;;6.05;3.08;;;;;;;24.27;100.00;100773.69;5211757;28;20399;-66
2021/07/25 08:49:36;;;;;;;9.73;3.33;;;;;;;24.35;100.00;100777.91;5208052;28;20047;-66
2021/07/25 08:52:16;;;;;;;4.05;2.85;;;;;;;24.25;100.00;100770.41;5209833;28;20275;-66
2021/07/25 08:54:47;;;;;;;9.20;3.78;;;;;;;23.88;100.00;100774.91;5201681;28;20025;-66
2021/07/25 08:57:21;;;;;;;15.07;4.32;;;;;;;23.93;100.00;100781.28;5206834;28;20065;-65
2021/07/25 08:59:53;;;;;;;6.15;3.42;;;;;;;23.92;100.00;100787.84;5212114;28;20097;-66
2021/07/25 09:02:30;;;;;;;6.82;3.30;;;;;;;23.91;100.00;100782.63;5217826;28;20493;-66
2021/07/25 09:05:01;;;;;;;7.10;2.78;;;;;;;23.96;100.00;100786.25;5220350;28;20052;-66
2021/07/25 09:07:33;;;;;;;10.55;3.40;;;;;;;24.07;100.00;100776.22;5207818;28;20513;-66
2021/07/25 09:10:07;;;;;;;5.60;2.90;;;;;;;24.39;100.00;100778.22;5208330;28;20388;-66
2021/07/25 09:12:38;;;;;;;9.37;3.27;;;;;;;24.27;100.00;100781.91;5214344;28;20033;-66
2021/07/25 09:15:11;;;;;;;6.32;3.83;;;;;;;24.38;100.00;100791.09;5214096;28;20282;-65
2021/07/25 09:17:42;;;;;;;7.63;3.40;;;;;;;24.43;100.00;100790.31;5210845;28;20075;-65
2021/07/25 09:20:15;;;;;;;9.93;3.30;;;;;;;24.72;100.00;100788.94;5207678;28;20072;-66
2021/07/25 09:22:52;;;;;;;6.32;3.10;;;;;;;24.50;100.00;100785.47;5211033;28;20102;-66
2021/07/25 09:25:22;;;;;;;7.95;3.03;;;;;;;24.43;100.00;100785.66;5214651;28;20114;-65
2021/07/25 09:27:54;;;;;;;5.43;3.03;;;;;;;24.56;100.00;100787.16;5214023;28;20096;-65
2021/07/25 09:30:28;;;;;;;6.15;3.30;;;;;;;24.76;100.00;100786.53;5207760;28;20021;-65
2021/07/25 09:32:59;;;;;;;7.85;3.13;;;;;;;24.95;100.00;100789.66;5208162;28;20399;-65
2021/07/25 09:35:34;;;;;;;4.13;3.20;;;;;;;24.78;100.00;100785.16;5213539;28;20022;-65
2021/07/25 09:38:04;;;;;;;11.48;3.90;;;;;;;24.66;100.00;100790.00;5214469;28;20064;-65
2021/07/25 09:40:37;;;;;;;8.20;3.72;;;;;;;24.90;100.00;100792.38;5193370;28;20056;-65
2021/07/25 09:43:12;;;;;;;4.68;2.30;;;;;;;24.65;100.00;100792.97;5193625;28;20402;-65
2021/07/25 09:45:50;;;;;;;7.60;2.03;;;;;;;24.63;100.00;100786.94;5213318;28;20032;-65
2021/07/25 09:48:22;;;;;;;6.22;2.22;;;;;;;24.78;100.00;100789.81;5218685;28;20053;-65
2021/07/25 09:50:56;;;;;;;5.07;2.10;;;;;;;24.81;100.00;100783.81;5205792;28;20080;-65
2021/07/25 09:53:44;;;;;;;5.43;2.30;;;;;;;25.11;100.00;100779.69;5216691;28;20021;-65
2021/07/25 09:56:18;;;;;;;6.78;2.40;;;;;;;25.44;100.00;100786.72;5218610;28;20022;-65
2021/07/25 09:58:50;;;;;;;6.07;2.03;;;;;;;25.67;100.00;100783.56;5218223;28;20052;-65
2021/07/25 10:01:41;;;;;;;3.13;1.90;;;;;;;25.50;100.00;100786.50;5211176;28;20029;-65
2021/07/25 10:04:19;;;;;;;8.18;2.30;;;;;;;25.29;100.00;100774.56;5221097;28;20084;-65
2021/07/25 10:06:53;;;;;;;6.45;2.38;;;;;;;25.47;100.00;100776.03;5205020;28;20456;-65
2021/07/25 10:09:25;;;;;;;5.50;2.58;;;;;;;25.40;100.00;100774.59;5216401;28;20018;-65
2021/07/25 10:12:01;;;;;;;6.00;2.20;;;;;;;25.19;100.00;100766.25;5217817;28;20043;-65
2021/07/25 10:14:35;;;;;;;6.78;2.70;;;;;;;25.31;100.00;100769.63;5214920;28;20032;-65
2021/07/25 10:17:06;;;;;;;8.97;2.50;;;;;;;25.31;100.00;100760.59;5212001;28;20024;-65
2021/07/25 10:19:42;;;;;;;9.70;2.45;;;;;;;25.44;100.00;100765.56;5212615;28;20028;-65
2021/07/25 10:22:13;;;;;;;5.38;2.20;;;;;;;25.22;100.00;100763.00;5218109;28;20025;-65
2021/07/25 10:24:45;;;;;;;9.00;2.67;;;;;;;25.34;100.00;100760.03;5217680;28;20028;-65
2021/07/25 10:27:17;;;;;;;3.10;1.92;;;;;;;25.65;100.00;100751.94;5212321;28;20055;-65
2021/07/25 10:29:51;;;;;;;6.38;2.47;;;;;;;26.06;100.00;100756.50;5210990;28;20071;-65
2021/07/25 10:32:22;;;;;;;6.40;2.00;;;;;;;26.38;100.00;100751.88;5215395;28;20100;-65
2021/07/25 10:34:55;;;;;;;4.05;1.95;;;;;;;26.46;100.00;100757.69;5217360;28;20021;-65
2021/07/25 10:37:26;;;;;;;5.32;2.20;;;;;;;26.74;100.00;100752.72;5204354;28;20031;-65
2021/07/25 10:39:59;;;;;;;4.72;2.20;;;;;;;26.86;100.00;100756.03;5217056;28;20033;-65
2021/07/25 10:42:32;;;;;;;7.22;2.03;;;;;;;25.97;100.00;100755.38;5216726;28;20055;-65
2021/07/25 10:45:04;;;;;;;6.70;2.50;;;;;;;25.77;100.00;100753.41;5210840;28;20033;-65
2021/07/25 10:47:34;;;;;;;5.70;2.22;;;;;;;25.70;100.00;100758.28;5210952;28;20487;-65
2021/07/25 10:50:07;;;;;;;11.55;2.78;;;;;;;24.75;100.00;100762.91;5216193;28;20028;-65
2021/07/25 10:52:49;;;;;;;10.57;3.00;;;;;;;23.44;100.00;100770.22;5217184;28;20033;-65
2021/07/25 10:55:35;;;;;;;17.60;4.35;;;;;;;22.78;100.00;100793.81;5213852;28;20056;-65
2021/07/25 10:58:07;;;;;;;13.15;3.40;;;;;;;22.48;100.00;100784.03;5211351;28;20029;-67
2021/07/25 11:00:42;;;;;;;10.20;3.00;;;;;;;21.83;100.00;100775.38;5210147;28;20026;-66
2021/07/25 11:03:34;;;;;;;6.03;2.80;;;;;;;21.55;100.00;100760.63;5224333;28;20033;-66
2021/07/25 11:06:05;;;;;;;5.53;2.42;;;;;;;21.48;100.00;100759.09;5204418;28;20060;-66
2021/07/25 11:08:41;;;;;;;6.72;2.83;;;;;;;21.69;100.00;100764.75;5217491;28;20033;-66
2021/07/25 11:11:25;;;;;;;4.03;2.35;;;;;;;21.83;100.00;100764.47;5212066;28;20029;-67
2021/07/25 11:13:55;;;;;;;5.70;2.75;;;;;;;21.93;100.00;100757.28;5210291;28;20028;-66
2021/07/25 11:16:32;;;;;;;5.57;3.10;;;;;;;21.99;100.00;100752.78;5212055;28;20047;-66
2021/07/25 11:19:06;;;;;;;4.70;2.75;;;;;;;22.15;100.00;100757.47;5216043;28;20033;-67
2021/07/25 11:21:44;;;;;;;9.52;3.40;;;;;;;22.26;100.00;100749.47;5217826;28;20060;-66
2021/07/25 11:24:18;;;;;;;8.70;2.72;;;;;;;22.36;100.00;100758.69;5214633;28;20052;-66
2021/07/25 11:26:52;;;;;;;10.25;2.90;;;;;;;22.53;100.00;100755.13;5216598;28;20033;-66
2021/07/25 11:29:22;;;;;;;10.68;2.72;;;;;;;22.61;100.00;100749.25;5214281;28;20025;-67
2021/07/25 11:31:52;;;;;;;6.22;2.63;;;;;;;22.91;100.00;100757.16;5210249;28;20040;-67